Time;durP1;ratioP1;P1;durP2;ratioP2;P2;SDS_P1;SDS_P2;PMS_P1;PMS_P2;Temp;Humidity;BMP_temperature;BMP_pressure;BME280_temperature;BME280_humidity;BME280_pressure;Samples;Min_cycle;Max_cycle;Signal;HPM_P1;HPM_P2
2022/08/18 00:00:13;;;;;;;8.40;3.67;;;;;;;25.91;38.02;97400.59;8251312;28;20225;-77
2022/08/18 00:04:21;;;;;;;9.30;3.20;;;;;;;25.94;38.52;97400.28;8251515;28;20292;-77
2022/08/18 00:08:38;;;;;;;8.97;3.77;;;;;;;25.93;38.43;97399.47;8251286;28;20236;-77
2022/08/18 00:12:42;;;;;;;8.77;3.43;;;;;;;25.92;38.40;97392.50;8251096;28;20227;-77
2022/08/18 00:16:47;;;;;;;8.87;3.40;;;;;;;25.91;38.12;97390.84;8250828;28;20229;-77
2022/08/18 00:20:50;;;;;;;14.37;3.77;;;;;;;25.92;38.49;97405.75;8250638;28;20241;-77
2022/08/18 00:24:55;;;;;;;8.23;3.70;;;;;;;25.86;38.48;97446.22;8250337;28;20247;-77
2022/08/18 00:28:58;;;;;;;15.10;3.57;;;;;;;25.70;38.95;97454.28;8250247;28;20306;-77
2022/08/18 00:33:02;;;;;;;9.30;3.87;;;;;;;25.86;38.47;97451.53;8250569;28;20458;-77
2022/08/18 00:37:05;;;;;;;11.83;3.50;;;;;;;25.84;38.08;97453.53;8250365;28;20246;-77
2022/08/18 00:41:08;;;;;;;9.87;3.43;;;;;;;25.92;37.71;97471.25;8250312;28;20229;-77
2022/08/18 00:45:14;;;;;;;6.53;3.27;;;;;;;25.83;37.50;97474.94;8250147;28;20531;-77
2022/08/18 00:49:19;;;;;;;7.23;2.77;;;;;;;25.97;37.22;97470.69;8250271;28;20228;-77
2022/08/18 00:53:26;;;;;;;6.63;3.00;;;;;;;25.98;37.46;97478.50;8249827;28;20239;-77
2022/08/18 00:57:29;;;;;;;7.33;3.40;;;;;;;26.03;37.64;97473.47;8249499;28;20248;-77
2022/08/18 01:01:33;;;;;;;8.90;2.90;;;;;;;26.02;37.76;97476.31;8249898;28;20243;-77
2022/08/18 01:05:41;;;;;;;6.50;3.07;;;;;;;26.00;37.84;97478.31;8249626;28;20229;-76
2022/08/18 01:09:44;;;;;;;6.30;3.30;;;;;;;26.06;38.08;97490.88;8249641;28;20538;-77
2022/08/18 01:13:47;;;;;;;7.63;3.67;;;;;;;26.01;38.29;97490.56;8248979;28;20563;-76
2022/08/18 01:22:18;;;;;;;5.83;3.20;;;;;;;26.01;38.34;97509.97;8249288;28;20226;-77
2022/08/18 01:26:24;;;;;;;5.90;3.60;;;;;;;25.91;39.15;97504.03;8248922;28;20241;-77
2022/08/18 01:30:27;;;;;;;9.20;3.37;;;;;;;25.70;40.51;97504.66;8249090;28;20411;-77
2022/08/18 01:34:29;;;;;;;7.80;3.30;;;;;;;25.72;40.51;97508.81;8249122;28;20303;-77
2022/08/18 01:38:32;;;;;;;7.03;3.27;;;;;;;25.68;41.28;97531.38;8249029;28;20236;-76
2022/08/18 01:42:37;;;;;;;8.33;3.60;;;;;;;25.65;41.67;97531.72;8248751;28;20239;-77
2022/08/18 01:46:41;;;;;;;5.67;3.30;;;;;;;25.64;41.96;97515.97;8248928;28;20233;-77
2022/08/18 01:50:44;;;;;;;6.50;3.73;;;;;;;25.59;43.04;97511.22;8248876;28;20237;-77
2022/08/18 01:54:47;;;;;;;9.77;3.47;;;;;;;25.49;45.85;97503.47;8248352;28;20233;-75
2022/08/18 01:58:52;;;;;;;13.40;4.60;;;;;;;25.30;48.16;97509.19;8248454;28;20241;-77
2022/08/18 02:02:57;;;;;;;6.17;3.90;;;;;;;25.29;48.25;97520.81;8248508;28;20588;-78
2022/08/18 02:07:08;;;;;;;11.03;4.13;;;;;;;25.12;50.28;97530.59;8248197;28;20304;-77
2022/08/18 02:11:11;;;;;;;10.67;4.40;;;;;;;25.08;50.18;97534.59;8253766;28;20245;-77
2022/08/18 02:15:15;;;;;;;7.13;4.30;;;;;;;24.96;50.57;97537.59;8254356;28;20507;-77
2022/08/18 02:19:18;;;;;;;11.87;4.53;;;;;;;24.82;52.06;97556.81;8254530;28;20264;-77
2022/08/18 02:23:22;;;;;;;8.80;4.73;;;;;;;24.83;53.69;97549.69;8254272;28;20248;-77
2022/08/18 02:27:24;;;;;;;12.87;5.03;;;;;;;24.80;53.22;97524.38;8254420;28;20243;-77
2022/08/18 02:31:28;;;;;;;13.20;5.33;;;;;;;24.69;53.79;97514.16;8254054;28;20241;-78
2022/08/18 02:35:31;;;;;;;5.93;4.87;;;;;;;24.57;54.80;97518.97;8253964;28;20235;-77
2022/08/18 02:39:36;;;;;;;6.53;4.83;;;;;;;24.57;54.79;97509.19;8253682;28;20255;-77
2022/08/18 02:43:40;;;;;;;13.60;5.43;;;;;;;24.46;55.45;97508.69;8253679;28;20249;-77
2022/08/18 02:47:45;;;;;;;7.20;4.60;;;;;;;24.47;55.31;97500.59;8253857;28;20233;-77
2022/08/18 02:51:48;;;;;;;8.67;4.97;;;;;;;24.41;55.00;97485.38;8252959;28;20231;-77
2022/08/18 02:55:51;;;;;;;6.80;4.63;;;;;;;24.32;55.07;97463.41;8253345;28;20237;-77
2022/08/18 02:59:54;;;;;;;7.67;4.77;;;;;;;24.27;55.54;97465.69;8253115;28;20247;-77
2022/08/18 03:03:59;;;;;;;8.37;4.83;;;;;;;24.20;55.27;97441.75;8252759;28;20235;-77
2022/08/18 03:08:02;;;;;;;8.30;5.17;;;;;;;24.09;55.65;97433.34;8252918;28;20238;-77
2022/08/18 03:12:07;;;;;;;7.87;4.73;;;;;;;23.98;56.11;97411.50;8252614;28;20568;-77
2022/08/18 03:16:10;;;;;;;9.70;5.37;;;;;;;23.94;55.94;97409.38;8252833;28;20244;-77
2022/08/18 03:20:14;;;;;;;10.27;5.63;;;;;;;23.84;55.93;97406.06;8252399;28;20234;-80
2022/08/18 03:24:17;;;;;;;6.80;5.23;;;;;;;23.75;56.16;97407.84;8252355;28;20257;-78
2022/08/18 03:28:25;;;;;;;10.03;5.40;;;;;;;23.79;56.43;97407.38;8252232;28;20233;-77
2022/08/18 03:32:29;;;;;;;7.87;5.50;;;;;;;23.90;56.41;97418.63;8252731;28;20229;-78
2022/08/18 03:36:34;;;;;;;6.50;5.27;;;;;;;23.98;56.51;97422.09;8252076;28;20438;-78
2022/08/18 03:40:37;;;;;;;7.33;5.43;;;;;;;23.97;56.05;97424.88;8252265;28;20235;-77
2022/08/18 03:44:40;;;;;;;8.43;5.70;;;;;;;23.89;56.17;97420.44;8251880;28;20233;-77
2022/08/18 03:48:45;;;;;;;8.93;5.90;;;;;;;23.80;56.11;97416.16;8251992;28;20257;-78
2022/08/18 03:52:49;;;;;;;7.10;5.17;;;;;;;23.84;55.93;97416.63;8251322;28;20232;-77
2022/08/18 03:56:54;;;;;;;10.67;5.60;;;;;;;23.85;56.08;97407.72;8251651;28;20236;-77
2022/08/18 04:00:57;;;;;;;7.53;5.83;;;;;;;24.02;55.74;97404.06;8251381;28;20248;-78
2022/08/18 04:05:00;;;;;;;8.17;5.37;;;;;;;23.92;56.26;97396.31;8251278;28;20238;-77
2022/08/18 04:09:11;;;;;;;6.80;6.20;;;;;;;23.92;56.40;97391.03;8251052;28;20232;-77
2022/08/18 04:13:14;;;;;;;9.43;6.10;;;;;;;23.88;56.17;97391.53;8251085;28;20413;-77
2022/08/18 04:17:23;;;;;;;8.30;6.00;;;;;;;23.87;57.18;97395.97;8251009;28;20230;-77
2022/08/18 04:21:27;;;;;;;8.80;6.07;;;;;;;23.95;56.81;97411.00;8250459;28;20226;-78
2022/08/18 04:25:31;;;;;;;8.70;6.43;;;;;;;23.95;57.26;97416.28;8250401;28;20234;-77
2022/08/18 04:29:35;;;;;;;8.40;7.07;;;;;;;23.88;57.88;97417.97;8250595;28;20237;-77
2022/08/18 04:33:38;;;;;;;9.60;6.57;;;;;;;23.87;58.27;97418.94;8249977;28;20234;-77
2022/08/18 04:37:44;;;;;;;8.93;6.47;;;;;;;23.83;57.76;97423.75;8250087;28;20249;-77
2022/08/18 04:41:48;;;;;;;8.37;6.43;;;;;;;23.79;57.62;97423.25;8250185;28;20231;-78
2022/08/18 04:45:51;;;;;;;10.23;6.50;;;;;;;23.79;57.85;97431.16;8249716;28;20232;-77
2022/08/18 04:49:53;;;;;;;10.50;7.30;;;;;;;23.71;58.30;97457.56;8249898;28;20529;-77
2022/08/18 04:53:59;;;;;;;10.47;6.40;;;;;;;23.81;58.01;97474.13;8249894;28;20494;-77
2022/08/18 04:58:04;;;;;;;8.80;6.70;;;;;;;23.76;59.06;97470.28;8249475;28;20260;-77
2022/08/18 05:02:07;;;;;;;10.13;7.77;;;;;;;23.74;59.01;97472.28;8249747;28;21877;-77
2022/08/18 05:06:16;;;;;;;10.47;6.70;;;;;;;23.80;57.99;97490.19;8249705;28;20235;-77
2022/08/18 05:10:19;;;;;;;8.97;6.73;;;;;;;23.80;58.65;97484.91;8249583;28;20541;-77
2022/08/18 05:14:23;;;;;;;8.17;6.83;;;;;;;23.12;60.52;97485.81;8249406;28;20234;-77
2022/08/18 05:18:26;;;;;;;10.07;6.90;;;;;;;23.47;59.38;97491.88;8249301;28;20549;-78
2022/08/18 05:22:29;;;;;;;8.43;7.00;;;;;;;23.60;60.01;97492.25;8248887;28;20233;-78
2022/08/18 05:26:33;;;;;;;10.03;6.60;;;;;;;23.73;58.94;97487.31;8248969;28;20243;-77
2022/08/18 05:30:39;;;;;;;8.53;7.37;;;;;;;23.78;59.41;97494.78;8249250;28;20562;-78
2022/08/18 05:34:42;;;;;;;9.20;7.27;;;;;;;23.80;59.40;97501.56;8249077;28;20441;-78
2022/08/18 05:38:53;;;;;;;8.93;7.17;;;;;;;23.88;59.55;97498.13;8249244;28;20279;-78
2022/08/18 05:42:57;;;;;;;10.53;6.73;;;;;;;23.89;59.80;97491.00;8248996;28;20229;-77
2022/08/18 05:47:05;;;;;;;8.23;6.73;;;;;;;23.97;59.24;97488.34;8255823;28;20233;-78
2022/08/18 05:51:14;;;;;;;9.27;6.60;;;;;;;24.02;58.88;97495.81;8255628;28;20235;-78
2022/08/18 05:59:52;;;;;;;7.83;6.70;;;;;;;24.21;58.46;97495.47;8254740;28;20241;-78
2022/08/18 06:04:01;;;;;;;8.20;6.90;;;;;;;24.29;58.24;97500.75;8254932;28;20243;-78
2022/08/18 06:08:08;;;;;;;7.20;6.50;;;;;;;24.30;58.19;97497.13;8255204;28;20234;-78
2022/08/18 06:12:19;;;;;;;7.20;6.57;;;;;;;24.38;57.48;97507.69;8254884;28;20535;-79
2022/08/18 06:16:28;;;;;;;7.53;6.73;;;;;;;24.70;56.99;97507.88;8254508;28;20245;-79
2022/08/18 06:20:38;;;;;;;9.63;6.90;;;;;;;24.48;57.41;97509.34;8254866;28;20428;-78
2022/08/18 06:24:46;;;;;;;10.40;7.33;;;;;;;24.43;56.88;97503.72;8254748;28;20517;-78
2022/08/18 06:28:59;;;;;;;11.90;6.97;;;;;;;24.45;57.03;97507.06;8253642;28;20230;-78
2022/08/18 06:33:13;;;;;;;7.83;7.00;;;;;;;24.51;56.84;97511.69;8254369;28;20231;-78
2022/08/18 06:37:23;;;;;;;8.33;6.20;;;;;;;24.54;55.73;97514.00;8253394;28;20245;-78
2022/08/18 06:41:35;;;;;;;8.33;6.97;;;;;;;24.81;56.00;97525.22;8254032;28;20482;-78
2022/08/18 06:45:47;;;;;;;7.90;6.07;;;;;;;24.96;53.99;97534.13;8254076;28;20240;-77
2022/08/18 06:49:54;;;;;;;9.67;6.40;;;;;;;25.14;53.44;97532.06;8253236;28;20228;-77
2022/08/18 06:53:59;;;;;;;7.00;6.13;;;;;;;25.22;53.67;97525.09;8253050;28;20228;-78
2022/08/18 06:58:05;;;;;;;8.33;6.30;;;;;;;25.09;53.71;97523.84;8252997;28;20233;-79
2022/08/18 07:02:18;;;;;;;8.97;6.57;;;;;;;25.22;53.28;97519.78;8252975;28;20222;-79
2022/08/18 07:06:29;;;;;;;10.67;6.10;;;;;;;25.71;52.75;97519.59;8242374;28;20304;-78
2022/08/18 07:10:36;;;;;;;8.13;6.33;;;;;;;25.95;51.71;97526.59;8252905;28;20535;-78
2022/08/18 07:14:44;;;;;;;10.73;5.80;;;;;;;26.21;50.55;97536.03;8252896;28;20404;-78
2022/08/18 07:18:46;;;;;;;7.83;6.23;;;;;;;26.42;50.03;97535.34;8252647;28;20237;-78
2022/08/18 07:22:56;;;;;;;8.37;6.47;;;;;;;26.64;49.44;97517.78;8252216;28;20231;-77
2022/08/18 07:27:06;;;;;;;8.17;6.27;;;;;;;26.81;48.91;97500.66;8251905;28;20238;-78
2022/08/18 07:31:18;;;;;;;7.70;6.63;;;;;;;26.99;48.40;97512.75;8252391;28;20226;-78
2022/08/18 07:35:24;;;;;;;6.97;5.70;;;;;;;27.08;48.40;97516.97;8252473;28;20238;-79
2022/08/18 07:39:32;;;;;;;6.40;5.80;;;;;;;27.37;47.79;97518.81;8252292;28;20234;-78
2022/08/18 07:43:46;;;;;;;10.30;6.10;;;;;;;27.46;46.95;97523.00;8252336;28;20400;-76
2022/08/18 07:47:52;;;;;;;8.73;5.83;;;;;;;27.67;45.90;97530.22;8251691;28;20233;-78
2022/08/18 07:51:59;;;;;;;12.40;6.10;;;;;;;27.66;46.22;97533.91;8251947;28;20328;-77
2022/08/18 07:56:05;;;;;;;8.80;5.77;;;;;;;27.69;45.13;97535.34;8251553;28;20410;-79
2022/08/18 08:00:23;;;;;;;12.60;5.80;;;;;;;27.48;44.57;97536.13;8251562;28;20231;-79
2022/08/18 08:04:51;;;;;;;6.67;5.87;;;;;;;27.61;45.56;97544.25;8251687;28;20241;-78
2022/08/18 08:09:00;;;;;;;6.77;5.40;;;;;;;27.66;45.01;97539.22;8250246;28;20237;-77
2022/08/18 08:13:13;;;;;;;8.80;5.00;;;;;;;27.90;44.49;97541.75;8251321;28;20233;-77
2022/08/18 08:17:31;;;;;;;7.60;5.03;;;;;;;28.04;44.28;97538.19;8251257;28;20279;-77
2022/08/18 08:21:39;;;;;;;9.80;5.27;;;;;;;28.03;43.77;97541.88;8251228;28;20230;-77
2022/08/18 08:25:48;;;;;;;7.37;5.60;;;;;;;27.78;44.10;97530.72;8250779;28;20434;-77
2022/08/18 08:29:56;;;;;;;7.37;5.43;;;;;;;27.78;44.21;97526.25;8250570;28;20237;-77
2022/08/18 08:34:05;;;;;;;6.50;5.23;;;;;;;27.82;43.93;97532.84;8250773;28;20419;-77
2022/08/18 08:38:10;;;;;;;7.57;5.27;;;;;;;27.88;44.38;97526.78;8250423;28;20233;-78
2022/08/18 08:42:39;;;;;;;6.13;5.13;;;;;;;27.95;43.68;97526.00;8250489;28;20233;-78
2022/08/18 08:46:45;;;;;;;7.23;5.47;;;;;;;27.97;43.49;97526.66;8250299;28;20245;-77
2022/08/18 08:50:55;;;;;;;6.20;5.23;;;;;;;27.97;43.55;97518.66;8250008;28;20235;-76
2022/08/18 08:55:03;;;;;;;6.73;5.37;;;;;;;28.14;44.03;97514.75;8250344;28;20400;-77
2022/08/18 08:59:10;;;;;;;10.17;5.60;;;;;;;27.95;43.37;97502.91;8250106;28;20237;-76
2022/08/18 09:03:24;;;;;;;7.47;5.50;;;;;;;28.20;42.88;97503.34;8249954;28;20240;-75
2022/08/18 09:07:44;;;;;;;8.30;5.40;;;;;;;28.34;43.28;97504.28;8250126;28;20233;-76
2022/08/18 09:12:12;;;;;;;7.93;5.50;;;;;;;28.79;42.57;97510.16;8250163;28;20244;-75
2022/08/18 09:16:23;;;;;;;5.57;4.60;;;;;;;29.69;40.71;97507.53;8250111;28;20391;-75
2022/08/18 09:20:50;;;;;;;7.97;5.27;;;;;;;29.86;38.40;97502.69;8250116;28;20231;-76
2022/08/18 09:24:54;;;;;;;6.93;5.10;;;;;;;29.93;39.19;97500.00;8249450;28;20235;-75
2022/08/18 09:28:59;;;;;;;6.33;5.00;;;;;;;29.78;40.00;97490.34;8250198;28;20242;-76
2022/08/18 09:33:16;;;;;;;8.83;5.93;;;;;;;29.76;40.00;97489.72;8249901;28;20529;-77
2022/08/18 09:37:23;;;;;;;8.80;5.43;;;;;;;30.85;37.37;97493.03;8249492;28;20234;-77
2022/08/18 09:41:37;;;;;;;8.37;5.30;;;;;;;30.88;37.43;97476.59;8249729;28;20536;-77
2022/08/18 09:45:58;;;;;;;5.97;4.83;;;;;;;30.96;36.89;97476.38;8249808;28;20293;-77
2022/08/18 09:50:36;;;;;;;8.53;4.80;;;;;;;30.51;37.54;97467.41;8248149;28;20345;-77
2022/08/18 09:54:51;;;;;;;8.43;4.80;;;;;;;30.74;36.83;97456.25;8249479;28;20294;-78
2022/08/18 09:59:01;;;;;;;8.30;4.93;;;;;;;30.44;37.07;97443.34;8248745;28;20246;-78
2022/08/18 10:03:19;;;;;;;7.43;4.70;;;;;;;30.38;37.08;97453.03;8249140;28;20538;-77
2022/08/18 10:07:33;;;;;;;6.70;4.40;;;;;;;31.37;36.32;97450.31;8249600;28;20238;-78
2022/08/18 10:12:18;;;;;;;6.63;4.33;;;;;;;31.46;35.06;97480.31;8248959;28;20240;-76
2022/08/18 10:16:28;;;;;;;4.40;3.87;;;;;;;31.76;33.72;97475.25;8249353;28;20236;-79
2022/08/18 10:20:59;;;;;;;7.60;3.87;;;;;;;32.24;32.79;97479.25;8249105;28;20238;-77
2022/08/18 10:25:02;;;;;;;8.30;4.80;;;;;;;32.20;33.20;97468.16;8249016;28;20236;-77
2022/08/18 10:29:54;;;;;;;6.57;3.80;;;;;;;32.51;32.33;97472.59;8250617;28;20235;-77
2022/08/18 10:34:08;;;;;;;6.43;4.03;;;;;;;32.54;32.78;97463.31;8254893;28;20227;-78
2022/08/18 10:38:41;;;;;;;5.07;3.80;;;;;;;31.73;34.07;97475.66;8255027;28;20260;-79
2022/08/18 10:42:53;;;;;;;8.23;4.33;;;;;;;31.42;34.36;97481.78;8254549;28;20536;-77
2022/08/18 10:46:59;;;;;;;6.47;4.13;;;;;;;31.43;34.29;97484.22;8254540;28;20233;-79
2022/08/18 10:51:13;;;;;;;7.27;4.30;;;;;;;31.14;34.88;97499.75;8254763;28;20232;-78
2022/08/18 10:55:37;;;;;;;4.30;3.90;;;;;;;31.12;35.24;97490.31;8254731;28;20248;-79
2022/08/18 11:00:05;;;;;;;6.70;3.97;;;;;;;31.10;34.59;97466.47;8254291;28;20230;-77
2022/08/18 11:04:24;;;;;;;8.63;4.67;;;;;;;31.04;34.62;97466.50;8254479;28;20236;-79
2022/08/18 11:08:44;;;;;;;6.10;4.40;;;;;;;30.62;35.49;97463.28;8254369;28;20441;-77
2022/08/18 11:13:00;;;;;;;5.43;4.00;;;;;;;31.22;34.82;97447.91;8253902;28;20230;-76
2022/08/18 11:17:17;;;;;;;4.93;4.00;;;;;;;31.23;34.88;97441.53;8253823;28;20236;-77
2022/08/18 11:21:26;;;;;;;8.63;4.37;;;;;;;31.07;34.73;97436.66;8253928;28;20231;-76
2022/08/18 11:25:34;;;;;;;5.33;3.90;;;;;;;31.08;35.06;97438.31;8253227;28;20245;-78
2022/08/18 11:29:39;;;;;;;5.37;4.20;;;;;;;30.98;34.93;97412.03;8253521;28;20232;-78
2022/08/18 11:33:42;;;;;;;6.53;4.30;;;;;;;30.88;34.97;97382.19;8253551;28;20232;-79
2022/08/18 11:37:48;;;;;;;5.87;3.90;;;;;;;31.18;34.90;97372.63;8253412;28;20236;-77
2022/08/18 11:41:56;;;;;;;5.87;4.40;;;;;;;30.83;34.52;97382.84;8253096;28;20234;-78
2022/08/18 11:46:03;;;;;;;4.77;4.23;;;;;;;30.77;34.96;97397.88;8253212;28;20235;-78
2022/08/18 11:50:10;;;;;;;10.30;4.33;;;;;;;30.99;34.71;97403.78;8252884;28;20250;-82
2022/08/18 11:54:21;;;;;;;7.07;4.17;;;;;;;30.83;34.53;97395.41;8252924;28;20234;-79
2022/08/18 11:58:40;;;;;;;9.63;4.23;;;;;;;30.67;35.33;97399.34;8252510;28;20232;-79
2022/08/18 12:02:43;;;;;;;7.00;3.93;;;;;;;30.39;35.95;97414.63;8252809;28;20230;-78
2022/08/18 12:07:00;;;;;;;6.13;4.40;;;;;;;30.29;36.32;97408.84;8252783;28;20259;-78
2022/08/18 12:11:15;;;;;;;7.13;4.60;;;;;;;30.19;36.00;97398.56;8252255;28;20232;-81
2022/08/18 12:15:32;;;;;;;6.60;4.40;;;;;;;30.04;36.08;97389.97;8252528;28;20331;-77
2022/08/18 12:19:46;;;;;;;8.73;4.90;;;;;;;29.98;36.80;97391.59;8252227;28;20235;-79
2022/08/18 12:23:49;;;;;;;5.80;4.30;;;;;;;30.02;36.14;97392.00;8251214;28;20247;-81
2022/08/18 12:27:54;;;;;;;4.80;4.30;;;;;;;29.95;37.15;97389.38;8251735;28;20231;-78
2022/08/18 12:31:58;;;;;;;7.73;4.43;;;;;;;29.88;37.11;97385.06;8252009;28;20240;-82
2022/08/18 12:36:01;;;;;;;7.00;4.60;;;;;;;29.80;36.83;97386.09;8251205;28;20228;-77
2022/08/18 12:40:07;;;;;;;7.20;4.40;;;;;;;29.73;37.66;97385.25;8251460;28;20242;-82
2022/08/18 12:44:10;;;;;;;6.30;4.73;;;;;;;29.68;36.93;97366.31;8251318;28;20235;-83
2022/08/18 12:48:16;;;;;;;8.17;4.33;;;;;;;29.84;37.42;97365.16;8251219;28;20231;-79
2022/08/18 12:52:24;;;;;;;7.10;4.80;;;;;;;29.92;37.69;97355.06;8250560;28;20240;-77
2022/08/18 12:56:30;;;;;;;14.23;4.90;;;;;;;30.80;35.92;97340.50;8250740;28;20258;-76
2022/08/18 13:00:33;;;;;;;8.43;4.50;;;;;;;31.18;35.31;97337.03;8250847;28;20240;-78
2022/08/18 13:04:39;;;;;;;8.83;4.80;;;;;;;31.61;34.60;97338.25;8250665;28;20241;-78
2022/08/18 13:08:42;;;;;;;5.03;4.53;;;;;;;31.51;33.83;97331.53;8250876;28;20488;-78
2022/08/18 13:12:51;;;;;;;7.17;4.77;;;;;;;31.74;33.26;97330.91;8250260;28;20229;-78
2022/08/18 13:16:55;;;;;;;5.33;4.30;;;;;;;32.05;33.06;97318.50;8250241;28;20241;-78
2022/08/18 13:21:00;;;;;;;6.33;4.53;;;;;;;32.27;32.07;97286.78;8250278;28;20512;-78
2022/08/18 13:25:05;;;;;;;6.53;4.47;;;;;;;32.37;32.42;97285.41;8250070;28;20231;-78
2022/08/18 13:29:09;;;;;;;7.23;4.27;;;;;;;32.71;31.87;97292.03;8250369;28;20399;-78
2022/08/18 13:33:12;;;;;;;7.27;4.33;;;;;;;32.38;31.60;97293.22;8250217;28;20237;-78
2022/08/18 13:37:36;;;;;;;5.07;4.20;;;;;;;32.95;31.43;97300.19;8249952;28;20262;-78
2022/08/18 13:41:42;;;;;;;5.73;4.57;;;;;;;33.10;30.51;97287.19;8249843;28;20230;-78
2022/08/18 13:45:48;;;;;;;8.03;4.43;;;;;;;32.81;31.00;97278.91;8249645;28;20510;-75
2022/08/18 13:49:55;;;;;;;8.37;4.73;;;;;;;32.87;31.12;97271.84;8249889;28;20283;-78
2022/08/18 13:54:03;;;;;;;7.70;4.43;;;;;;;32.92;31.20;97272.78;8249852;28;20279;-78
2022/08/18 13:58:27;;;;;;;9.17;4.33;;;;;;;33.19;31.67;97271.63;8249814;28;20547;-78
2022/08/18 14:02:30;;;;;;;6.23;4.33;;;;;;;33.08;30.90;97271.31;8249901;28;20343;-78
2022/08/18 14:06:34;;;;;;;8.53;4.47;;;;;;;32.67;30.96;97264.88;8254336;28;20234;-78
2022/08/18 14:10:39;;;;;;;7.80;4.67;;;;;;;32.46;30.65;97282.22;8255775;28;20435;-78
2022/08/18 14:14:41;;;;;;;5.90;4.30;;;;;;;32.17;31.04;97293.69;8255653;28;20231;-78
2022/08/18 14:26:46;;;;;;;8.07;4.70;;;;;;;31.86;31.09;97287.38;8255439;28;20528;-78
2022/08/18 14:27:38;;;;;;;6.70;4.17;;;;;;;32.50;31.09;97266.50;8254777;28;20238;-77
2022/08/18 14:31:41;;;;;;;8.23;4.57;;;;;;;32.48;31.43;97260.53;8255157;28;20238;-78
2022/08/18 14:35:46;;;;;;;7.20;4.53;;;;;;;32.39;30.95;97257.38;8254847;28;20230;-78
2022/08/18 14:40:10;;;;;;;5.83;4.67;;;;;;;32.21;31.96;97257.38;8254300;28;20430;-78
2022/08/18 14:44:15;;;;;;;8.37;5.40;;;;;;;31.93;32.33;97242.63;8254637;28;20252;-78
2022/08/18 14:48:26;;;;;;;10.53;4.77;;;;;;;31.82;32.69;97246.03;8254674;28;20413;-78
2022/08/18 14:52:29;;;;;;;8.17;4.90;;;;;;;32.01;32.71;97238.84;8254453;28;20239;-77
2022/08/18 14:56:33;;;;;;;5.57;4.40;;;;;;;31.85;32.48;97243.72;8254411;28;20228;-77
2022/08/18 15:00:42;;;;;;;6.60;4.60;;;;;;;31.72;33.20;97243.84;8254088;28;20238;-78
2022/08/18 15:04:55;;;;;;;6.37;4.60;;;;;;;31.88;32.99;97240.59;8253832;28;20227;-78
2022/08/18 15:09:00;;;;;;;6.77;4.33;;;;;;;31.99;33.32;97243.56;8253904;28;20242;-77
2022/08/18 15:13:03;;;;;;;4.53;4.00;;;;;;;31.97;32.76;97249.16;8253846;28;20259;-78
2022/08/18 15:17:07;;;;;;;6.53;4.27;;;;;;;31.98;33.03;97242.75;8253442;28;20577;-78
2022/08/18 15:25:43;;;;;;;6.33;4.73;;;;;;;31.75;34.08;97254.94;8253152;28;20236;-78
2022/08/18 15:29:46;;;;;;;4.80;4.23;;;;;;;31.69;33.63;97250.47;8253276;28;20232;-78
2022/08/18 15:33:54;;;;;;;6.67;4.47;;;;;;;31.55;34.07;97236.41;8252732;28;20518;-77
2022/08/18 15:38:00;;;;;;;5.77;4.50;;;;;;;31.60;34.37;97237.59;8253013;28;20262;-78
2022/08/18 15:42:10;;;;;;;5.23;4.10;;;;;;;31.43;34.30;97219.38;8252779;28;20244;-78
2022/08/18 15:46:15;;;;;;;5.90;4.97;;;;;;;31.06;34.13;97213.94;8252716;28;20238;-77
2022/08/18 15:50:20;;;;;;;8.23;4.50;;;;;;;30.89;34.68;97188.72;8252682;28;20231;-78
2022/08/18 15:54:28;;;;;;;9.57;5.10;;;;;;;30.78;34.78;97191.03;8252570;28;20237;-78
2022/08/18 15:58:31;;;;;;;9.00;4.63;;;;;;;30.66;35.11;97181.28;8252232;28;20235;-78
2022/08/18 16:02:34;;;;;;;10.73;4.87;;;;;;;30.27;35.67;97169.75;8252221;28;20226;-77
2022/08/18 16:06:44;;;;;;;6.37;4.67;;;;;;;30.43;36.08;97166.63;8251969;28;20498;-77
2022/08/18 16:10:47;;;;;;;7.17;4.87;;;;;;;30.43;35.91;97163.94;8251844;28;20233;-76
2022/08/18 16:14:52;;;;;;;6.47;4.77;;;;;;;30.34;36.31;97173.25;8251762;28;20227;-77
2022/08/18 16:18:54;;;;;;;6.67;5.07;;;;;;;30.26;36.39;97182.28;8251776;28;20237;-77
2022/08/18 16:22:59;;;;;;;7.53;4.83;;;;;;;30.21;36.35;97187.44;8251495;28;20301;-77
2022/08/18 16:27:05;;;;;;;6.93;5.00;;;;;;;30.08;36.46;97193.63;8250425;28;20241;-77
2022/08/18 16:31:08;;;;;;;8.30;5.47;;;;;;;29.98;36.52;97193.28;8251013;28;20230;-78
2022/08/18 16:35:11;;;;;;;6.67;4.63;;;;;;;29.85;37.36;97202.13;8251334;28;20413;-77
2022/08/18 16:39:15;;;;;;;5.73;5.00;;;;;;;29.89;37.02;97198.03;8251007;28;20437;-78
2022/08/18 16:43:19;;;;;;;7.87;4.90;;;;;;;29.90;37.34;97194.31;8251011;28;20521;-77
2022/08/18 16:47:22;;;;;;;9.10;4.80;;;;;;;29.77;37.59;97191.69;8250821;28;20229;-77
2022/08/18 16:51:27;;;;;;;8.57;4.90;;;;;;;29.56;37.98;97179.41;8250655;28;20235;-77
2022/08/18 16:55:32;;;;;;;5.60;5.03;;;;;;;29.61;38.17;97184.94;8250812;28;20556;-77
2022/08/18 17:04:10;;;;;;;8.77;5.17;;;;;;;29.53;38.52;97179.81;8249893;28;20426;-77
2022/08/18 17:08:15;;;;;;;5.50;5.00;;;;;;;29.42;38.77;97184.75;8250247;28;20251;-77
2022/08/18 17:12:20;;;;;;;6.07;5.00;;;;;;;29.40;38.92;97186.00;8250201;28;20236;-78
2022/08/18 17:16:24;;;;;;;10.10;5.40;;;;;;;29.14;39.22;97186.81;8250034;28;20234;-77
2022/08/18 17:20:27;;;;;;;7.13;5.20;;;;;;;29.10;39.20;97172.25;8250010;28;20236;-77
2022/08/18 17:24:30;;;;;;;6.37;5.37;;;;;;;29.09;39.20;97173.25;8249521;28;20226;-77
2022/08/18 17:28:42;;;;;;;10.63;5.20;;;;;;;29.00;39.22;97173.47;8249772;28;20230;-78
2022/08/18 17:32:56;;;;;;;6.70;4.70;;;;;;;28.88;39.66;97169.75;8249529;28;20227;-77
2022/08/18 17:37:03;;;;;;;6.40;5.00;;;;;;;28.87;39.73;97172.66;8249931;28;20227;-78
2022/08/18 17:41:06;;;;;;;5.80;5.20;;;;;;;28.82;39.92;97167.91;8249757;28;20237;-78
2022/08/18 17:45:12;;;;;;;7.43;5.80;;;;;;;28.58;40.80;97174.66;8250071;28;20233;-78
2022/08/18 17:51:32;;;;;;;8.83;5.80;;;;;;;28.48;42.20;97172.31;8249808;28;20245;-77
2022/08/18 17:54:20;;;;;;;8.60;6.70;;;;;;;28.35;42.66;97175.78;8249332;28;20229;-77
2022/08/18 17:58:28;;;;;;;12.00;6.60;;;;;;;28.25;42.74;97180.66;8249495;28;20298;-77
2022/08/18 18:02:33;;;;;;;11.03;7.23;;;;;;;28.10;43.46;97179.97;8249312;28;20237;-77
2022/08/18 18:06:38;;;;;;;9.67;6.93;;;;;;;27.82;44.14;97197.63;8249421;28;20291;-77
2022/08/18 18:10:43;;;;;;;7.37;6.67;;;;;;;27.91;43.54;97193.00;8249333;28;20244;-78
2022/08/18 18:15:09;;;;;;;12.13;6.70;;;;;;;27.68;44.22;97195.91;8248820;28;20424;-78
2022/08/18 18:19:13;;;;;;;11.77;7.70;;;;;;;27.69;44.38;97205.53;8249240;28;20444;-77
2022/08/18 18:23:18;;;;;;;7.90;6.90;;;;;;;27.54;45.08;97210.16;8249668;28;20230;-78
2022/08/18 18:27:30;;;;;;;10.60;7.13;;;;;;;27.57;44.81;97202.59;8248958;28;20242;-78
2022/08/18 18:31:32;;;;;;;8.33;7.13;;;;;;;27.33;45.30;97214.50;8249316;28;20237;-78
2022/08/18 18:35:50;;;;;;;9.67;7.30;;;;;;;27.45;45.20;97218.25;8249228;28;20223;-78
2022/08/18 18:39:58;;;;;;;9.40;7.23;;;;;;;27.32;45.24;97220.81;8248197;28;20547;-78
2022/08/18 18:44:06;;;;;;;10.63;7.33;;;;;;;27.33;45.31;97221.66;8248710;28;20298;-78
2022/08/18 18:48:14;;;;;;;8.77;6.93;;;;;;;27.29;45.34;97222.03;8248938;28;20232;-78
2022/08/18 18:52:43;;;;;;;7.93;7.23;;;;;;;27.30;45.46;97225.50;8252904;28;20228;-78
2022/08/18 18:56:49;;;;;;;8.67;7.90;;;;;;;27.21;45.15;97229.31;8254598;28;20233;-78
2022/08/18 19:00:58;;;;;;;8.40;7.63;;;;;;;27.11;45.70;97217.16;8253982;28;20248;-78
2022/08/18 19:05:08;;;;;;;8.27;7.47;;;;;;;27.14;45.40;97215.94;8254170;28;20237;-78
2022/08/18 19:09:17;;;;;;;8.63;7.70;;;;;;;27.04;45.60;97226.09;8254091;28;20233;-78
2022/08/18 19:13:23;;;;;;;9.47;7.83;;;;;;;27.07;45.89;97231.84;8253989;28;20294;-78
2022/08/18 19:17:40;;;;;;;8.37;7.43;;;;;;;27.13;45.81;97237.38;8253975;28;20230;-78
2022/08/18 19:21:44;;;;;;;11.53;7.67;;;;;;;27.14;45.36;97242.50;8253835;28;20237;-78
2022/08/18 19:26:11;;;;;;;9.13;7.27;;;;;;;27.10;45.73;97250.03;8253069;28;20245;-79
2022/08/18 19:30:17;;;;;;;10.60;7.50;;;;;;;27.06;46.08;97254.09;8253694;28;20426;-79
2022/08/18 19:34:23;;;;;;;8.47;7.70;;;;;;;26.94;46.02;97263.59;8253735;28;20232;-80
2022/08/18 19:38:37;;;;;;;9.20;7.70;;;;;;;27.02;46.23;97260.81;8253055;28;20235;-78
2022/08/18 19:42:44;;;;;;;8.37;7.53;;;;;;;26.98;45.93;97253.38;8253289;28;20324;-79
2022/08/18 19:46:49;;;;;;;11.90;8.47;;;;;;;26.93;45.83;97259.28;8253018;28;20236;-78